Skip Navigation Links Skip Navigation Links

Current Weather

Aurora Muni, Aurora, Ill.

For information only: do not use for flight planning or navigation.
Latest weather
Observation time Friday, February 28, 2020 5:52 AM CST
Local time Friday, February 28, 2020 6:01 AM CST
Flight conditions Visual Meteorological Conditions
Winds
Wind direction West (280°)
Wind speed 6 mph
Visibility 9 mi.
Sky condition
Ceiling 7,000 ft. overcast
Cloud layer overcast 7,000 ft.
Temperature 19°F
Dewpoint 13°F
Altimeter 30.03 in.Hg
Pressure change last 3 hours0.01 in.Hg
Pressure falling, then rising
Derived measurements
Relative humidity 77%
Wind chill 11°F
Density altitude -2126 ft.
Sea-level pressure 30.06 in.Hg
Climate data
Temperature minimum, last 6 hours 14°F
Temperature maximum, last 6 hours 19°F
Remarks
Fully automated report.
Automated weather observing station with precipitation discriminator.
METAR KARR 281152Z AUTO 28005KT 9SM OVC070 M07/M11 A3003 RMK AO2 SLP179 T10721106 11072 21100 55003

Settings

Location code

InnerDrive.Weather 4.0.6770.0 Release CLR 4.0.30319.42000
Copyright ©2018 Inner Drive Technology. All rights reserved. Portions Copyright ©1986-2018 David Braverman.

Find weather

Site navigation


Skip Navigation Links

Place info

Page info

PayPal - The safer, easier way to pay online!

Return home.

Copyright ©2020 Inner Drive Technology. Purveyors of fine, hand-crafted computer software. Page printed 2020-02-28T12:01:13 UTC.